メインページ
METAR-TAF:

METAR-TAF

空港 :

ウィンザー, オンタリオ州, カナダ

緯度: 42-16N, 経度: 082-58W, 海抜: 190m

現時点の気象観測

当レポートは41分前の01:00(UTC)に作成
東/南東の風 4kt
気温 1°C
湿度 80%
気圧 1018 hPa
視程: 14.5km
高度8500ftの千切れ雲あり
高度11000ftの曇り

METAR: CYQG 060100Z AUTO 11004KT 9SM BKN085 OVC110 01/M02 A3005 RMK SLP185

時間: 20:41 (01:41 UTC)

予報

当レポートは2時間3分前の23:38(UTC)に作成
予報は06日の 00時(UTC)から 06日の 24時(UTC)まで有効
変向風 3kt
視程: 10km
高度3000ftの雲はほとんどない
高度8000ftの曇り
06日の 0700時(UTC)から
南/南西の風 8kt
視程: 10km
高度3000ftの曇り
弱いにわか雨
06日の 07時(UTC)から 06日の 09時(UTC)まで徐々に
南西の風 12kt、最大22ktの突風を伴う
06日の 10時(UTC)から 06日の 12時(UTC)まで徐々に
西の風 12kt、最大22ktの突風を伴う
06日の 1400時(UTC)から
北/北西の風 15kt、最大25ktの突風を伴う
視程: 10km
高度2500ftの千切れ雲あり
06日の 16時(UTC)から 06日の 18時(UTC)まで徐々に
北西の風 12kt、最大22ktの突風を伴う
高度3000ftの雲は散在している
06日の 2300時(UTC)から
西/北西の風 10kt
視程: 10km
高度2500ftの雲はほとんどない

TAF: CYQG 052338Z 0600/0624 VRB03KT P6SM FEW030 OVC080 FM060700 21008KT P6SM -SHRA OVC030 BECMG 0607/0609 23012G22KT BECMG 0610/0612 27012G22KT FM061400 33015G25KT P6SM BKN025 BECMG 0616/0618 32012G22KT SCT030 FM062300 30010KT P6SM FEW025 RMK FCST BASED ON AUTO OBS. NXT FCST BY 060600Z

4,000以上の空港の気象観測と天気予報(METAR報とTAF報)

利用可能な観測所は地図上に黄色い丸と赤い丸で示す。

丸の上にカーソルを重ねると観測所名を参照できる。

次にクリックすると気象観測と天気予報を参照できる。

マップの切り替え:黒色「×」印の緑ボタンをクリックして拡大、「-」印の緑ボタンをクリックして縮小、緑色の三角印をクリックして隣りの地図に切り替え


METAR-TAF: